sensor_id;sensor_type;location;lat;lon;timestamp;P1;durP1;ratioP1;P2;durP2;ratioP2
4563;SDS011;2294;51.818;8.484;2023-10-08T00:01:02;13.70;;;4.80;;
4563;SDS011;2294;51.818;8.484;2023-10-08T00:03:31;11.03;;;5.17;;
4563;SDS011;2294;51.818;8.484;2023-10-08T00:05:58;17.23;;;5.50;;
4563;SDS011;2294;51.818;8.484;2023-10-08T00:08:25;11.33;;;5.40;;
4563;SDS011;2294;51.818;8.484;2023-10-08T00:10:52;11.13;;;4.70;;
4563;SDS011;2294;51.818;8.484;2023-10-08T00:13:19;12.07;;;4.77;;
4563;SDS011;2294;51.818;8.484;2023-10-08T00:15:47;10.43;;;4.57;;
4563;SDS011;2294;51.818;8.484;2023-10-08T00:18:19;13.00;;;5.20;;
4563;SDS011;2294;51.818;8.484;2023-10-08T00:20:47;13.30;;;5.20;;
4563;SDS011;2294;51.818;8.484;2023-10-08T00:23:20;10.60;;;4.63;;
4563;SDS011;2294;51.818;8.484;2023-10-08T00:25:50;30.17;;;5.50;;
4563;SDS011;2294;51.818;8.484;2023-10-08T00:28:18;13.20;;;4.60;;
4563;SDS011;2294;51.818;8.484;2023-10-08T00:30:46;11.37;;;4.60;;
4563;SDS011;2294;51.818;8.484;2023-10-08T00:33:14;13.60;;;5.57;;
4563;SDS011;2294;51.818;8.484;2023-10-08T00:35:43;16.93;;;4.60;;
4563;SDS011;2294;51.818;8.484;2023-10-08T00:38:10;11.97;;;5.47;;
4563;SDS011;2294;51.818;8.484;2023-10-08T00:40:41;17.43;;;5.83;;
4563;SDS011;2294;51.818;8.484;2023-10-08T00:43:11;11.93;;;4.10;;
4563;SDS011;2294;51.818;8.484;2023-10-08T00:45:38;15.17;;;5.07;;
4563;SDS011;2294;51.818;8.484;2023-10-08T00:48:09;17.27;;;5.50;;
4563;SDS011;2294;51.818;8.484;2023-10-08T00:50:41;13.97;;;4.70;;
4563;SDS011;2294;51.818;8.484;2023-10-08T00:53:10;10.60;;;4.73;;
4563;SDS011;2294;51.818;8.484;2023-10-08T00:55:46;15.63;;;6.13;;
4563;SDS011;2294;51.818;8.484;2023-10-08T00:58:19;18.67;;;5.40;;
4563;SDS011;2294;51.818;8.484;2023-10-08T01:00:51;14.33;;;5.73;;
4563;SDS011;2294;51.818;8.484;2023-10-08T01:03:25;12.93;;;5.00;;
4563;SDS011;2294;51.818;8.484;2023-10-08T01:05:52;13.03;;;5.70;;
4563;SDS011;2294;51.818;8.484;2023-10-08T01:08:20;16.30;;;5.20;;
4563;SDS011;2294;51.818;8.484;2023-10-08T01:11:15;17.03;;;5.63;;
4563;SDS011;2294;51.818;8.484;2023-10-08T01:13:43;13.80;;;4.80;;
4563;SDS011;2294;51.818;8.484;2023-10-08T01:16:11;20.07;;;6.20;;
4563;SDS011;2294;51.818;8.484;2023-10-08T01:18:39;12.03;;;5.50;;
4563;SDS011;2294;51.818;8.484;2023-10-08T01:21:16;25.50;;;5.50;;
4563;SDS011;2294;51.818;8.484;2023-10-08T01:24:00;19.23;;;5.67;;
4563;SDS011;2294;51.818;8.484;2023-10-08T01:26:30;13.17;;;5.83;;
4563;SDS011;2294;51.818;8.484;2023-10-08T01:28:58;15.70;;;5.87;;
4563;SDS011;2294;51.818;8.484;2023-10-08T01:31:28;29.57;;;7.43;;
4563;SDS011;2294;51.818;8.484;2023-10-08T01:33:57;18.50;;;5.03;;
4563;SDS011;2294;51.818;8.484;2023-10-08T01:36:25;21.20;;;6.00;;
4563;SDS011;2294;51.818;8.484;2023-10-08T01:38:53;20.93;;;5.63;;
4563;SDS011;2294;51.818;8.484;2023-10-08T01:41:21;16.77;;;6.80;;
4563;SDS011;2294;51.818;8.484;2023-10-08T01:43:55;20.63;;;6.07;;
4563;SDS011;2294;51.818;8.484;2023-10-08T01:46:23;23.10;;;6.27;;
4563;SDS011;2294;51.818;8.484;2023-10-08T01:48:52;13.40;;;5.03;;
4563;SDS011;2294;51.818;8.484;2023-10-08T01:51:25;18.30;;;6.90;;
4563;SDS011;2294;51.818;8.484;2023-10-08T01:54:02;22.30;;;6.87;;
4563;SDS011;2294;51.818;8.484;2023-10-08T01:56:36;13.80;;;5.80;;
4563;SDS011;2294;51.818;8.484;2023-10-08T01:59:03;14.80;;;5.17;;
4563;SDS011;2294;51.818;8.484;2023-10-08T02:01:31;17.37;;;6.27;;
4563;SDS011;2294;51.818;8.484;2023-10-08T02:03:58;20.83;;;6.77;;
4563;SDS011;2294;51.818;8.484;2023-10-08T02:06:25;21.70;;;6.60;;
4563;SDS011;2294;51.818;8.484;2023-10-08T02:08:52;19.77;;;7.47;;
4563;SDS011;2294;51.818;8.484;2023-10-08T02:11:20;22.33;;;6.47;;
4563;SDS011;2294;51.818;8.484;2023-10-08T02:13:50;15.10;;;7.23;;
4563;SDS011;2294;51.818;8.484;2023-10-08T02:16:17;15.80;;;6.57;;
4563;SDS011;2294;51.818;8.484;2023-10-08T02:18:45;22.33;;;6.10;;
4563;SDS011;2294;51.818;8.484;2023-10-08T02:21:13;9.00;;;2.97;;
4563;SDS011;2294;51.818;8.484;2023-10-08T02:23:40;3.10;;;1.70;;
4563;SDS011;2294;51.818;8.484;2023-10-08T02:26:09;1.10;;;0.90;;
4563;SDS011;2294;51.818;8.484;2023-10-08T02:28:36;1.13;;;0.73;;
4563;SDS011;2294;51.818;8.484;2023-10-08T02:31:05;2.90;;;0.97;;
4563;SDS011;2294;51.818;8.484;2023-10-08T02:33:33;4.30;;;0.80;;
4563;SDS011;2294;51.818;8.484;2023-10-08T02:36:02;3.87;;;0.83;;
4563;SDS011;2294;51.818;8.484;2023-10-08T02:38:30;1.10;;;0.90;;
4563;SDS011;2294;51.818;8.484;2023-10-08T02:41:02;1.03;;;0.90;;
4563;SDS011;2294;51.818;8.484;2023-10-08T02:43:31;1.37;;;0.90;;
4563;SDS011;2294;51.818;8.484;2023-10-08T02:46:01;1.07;;;0.90;;
4563;SDS011;2294;51.818;8.484;2023-10-08T02:48:33;0.90;;;0.70;;
4563;SDS011;2294;51.818;8.484;2023-10-08T02:51:01;1.10;;;0.90;;
4563;SDS011;2294;51.818;8.484;2023-10-08T02:53:38;1.60;;;0.80;;
4563;SDS011;2294;51.818;8.484;2023-10-08T02:56:07;1.10;;;0.70;;
4563;SDS011;2294;51.818;8.484;2023-10-08T02:58:38;0.80;;;0.70;;
4563;SDS011;2294;51.818;8.484;2023-10-08T03:01:06;1.10;;;0.80;;
4563;SDS011;2294;51.818;8.484;2023-10-08T03:03:39;0.90;;;0.60;;
4563;SDS011;2294;51.818;8.484;2023-10-08T03:06:07;0.90;;;0.70;;
4563;SDS011;2294;51.818;8.484;2023-10-08T03:08:36;1.00;;;0.70;;
4563;SDS011;2294;51.818;8.484;2023-10-08T03:11:05;1.87;;;1.00;;
4563;SDS011;2294;51.818;8.484;2023-10-08T03:13:33;0.80;;;0.60;;
4563;SDS011;2294;51.818;8.484;2023-10-08T03:16:03;0.90;;;0.73;;
4563;SDS011;2294;51.818;8.484;2023-10-08T03:18:34;0.80;;;0.60;;
4563;SDS011;2294;51.818;8.484;2023-10-08T03:21:04;0.90;;;0.57;;
4563;SDS011;2294;51.818;8.484;2023-10-08T03:23:44;0.90;;;0.60;;
4563;SDS011;2294;51.818;8.484;2023-10-08T03:26:12;1.00;;;0.60;;
4563;SDS011;2294;51.818;8.484;2023-10-08T03:28:57;0.80;;;0.60;;
4563;SDS011;2294;51.818;8.484;2023-10-08T03:31:24;0.80;;;0.50;;
4563;SDS011;2294;51.818;8.484;2023-10-08T03:34:13;1.00;;;0.70;;
4563;SDS011;2294;51.818;8.484;2023-10-08T03:36:42;0.90;;;0.60;;
4563;SDS011;2294;51.818;8.484;2023-10-08T03:39:10;0.80;;;0.50;;
4563;SDS011;2294;51.818;8.484;2023-10-08T03:41:38;0.80;;;0.70;;
4563;SDS011;2294;51.818;8.484;2023-10-08T03:44:06;1.10;;;0.60;;
4563;SDS011;2294;51.818;8.484;2023-10-08T03:46:38;0.83;;;0.60;;
4563;SDS011;2294;51.818;8.484;2023-10-08T03:49:07;0.90;;;0.63;;
4563;SDS011;2294;51.818;8.484;2023-10-08T03:51:42;1.33;;;0.67;;
4563;SDS011;2294;51.818;8.484;2023-10-08T03:54:09;0.90;;;0.70;;
4563;SDS011;2294;51.818;8.484;2023-10-08T03:56:42;1.00;;;0.70;;
4563;SDS011;2294;51.818;8.484;2023-10-08T03:59:13;0.90;;;0.70;;
4563;SDS011;2294;51.818;8.484;2023-10-08T04:01:45;1.20;;;0.90;;
4563;SDS011;2294;51.818;8.484;2023-10-08T04:04:19;1.17;;;1.00;;
4563;SDS011;2294;51.818;8.484;2023-10-08T04:06:50;1.37;;;1.07;;
4563;SDS011;2294;51.818;8.484;2023-10-08T04:09:20;1.10;;;0.83;;
4563;SDS011;2294;51.818;8.484;2023-10-08T04:11:49;1.43;;;0.90;;
4563;SDS011;2294;51.818;8.484;2023-10-08T04:14:21;1.43;;;1.13;;
4563;SDS011;2294;51.818;8.484;2023-10-08T04:16:48;0.97;;;0.80;;
4563;SDS011;2294;51.818;8.484;2023-10-08T04:19:17;1.10;;;1.00;;
4563;SDS011;2294;51.818;8.484;2023-10-08T04:21:46;2.20;;;1.00;;
4563;SDS011;2294;51.818;8.484;2023-10-08T04:24:20;1.00;;;0.70;;
4563;SDS011;2294;51.818;8.484;2023-10-08T04:26:53;1.20;;;0.70;;
4563;SDS011;2294;51.818;8.484;2023-10-08T04:29:22;1.30;;;0.90;;
4563;SDS011;2294;51.818;8.484;2023-10-08T04:31:49;3.90;;;0.73;;
4563;SDS011;2294;51.818;8.484;2023-10-08T04:34:26;4.63;;;0.87;;
4563;SDS011;2294;51.818;8.484;2023-10-08T04:36:54;1.00;;;0.63;;
4563;SDS011;2294;51.818;8.484;2023-10-08T04:39:27;1.20;;;0.70;;
4563;SDS011;2294;51.818;8.484;2023-10-08T04:41:58;2.83;;;0.80;;
4563;SDS011;2294;51.818;8.484;2023-10-08T04:44:31;1.50;;;0.77;;
4563;SDS011;2294;51.818;8.484;2023-10-08T04:46:58;4.73;;;0.80;;
4563;SDS011;2294;51.818;8.484;2023-10-08T04:49:31;1.13;;;0.80;;
4563;SDS011;2294;51.818;8.484;2023-10-08T04:51:59;2.77;;;1.63;;
4563;SDS011;2294;51.818;8.484;2023-10-08T04:54:31;1.20;;;0.80;;
4563;SDS011;2294;51.818;8.484;2023-10-08T04:57:02;5.00;;;2.53;;
4563;SDS011;2294;51.818;8.484;2023-10-08T04:59:31;1.83;;;0.90;;
4563;SDS011;2294;51.818;8.484;2023-10-08T05:01:59;0.90;;;0.80;;
4563;SDS011;2294;51.818;8.484;2023-10-08T05:04:44;2.23;;;0.87;;
4563;SDS011;2294;51.818;8.484;2023-10-08T05:07:21;2.70;;;0.70;;
4563;SDS011;2294;51.818;8.484;2023-10-08T05:10:07;1.00;;;0.77;;
4563;SDS011;2294;51.818;8.484;2023-10-08T05:12:57;1.83;;;0.80;;
4563;SDS011;2294;51.818;8.484;2023-10-08T05:15:40;1.83;;;0.73;;
4563;SDS011;2294;51.818;8.484;2023-10-08T05:18:15;0.90;;;0.63;;
4563;SDS011;2294;51.818;8.484;2023-10-08T05:20:48;7.87;;;3.30;;
4563;SDS011;2294;51.818;8.484;2023-10-08T05:23:28;4.07;;;0.93;;
4563;SDS011;2294;51.818;8.484;2023-10-08T05:26:14;1.87;;;0.70;;
4563;SDS011;2294;51.818;8.484;2023-10-08T05:28:56;2.93;;;1.40;;
4563;SDS011;2294;51.818;8.484;2023-10-08T05:31:53;3.47;;;0.90;;
4563;SDS011;2294;51.818;8.484;2023-10-08T05:34:34;1.50;;;0.90;;
4563;SDS011;2294;51.818;8.484;2023-10-08T05:37:08;5.37;;;1.57;;
4563;SDS011;2294;51.818;8.484;2023-10-08T05:39:57;3.40;;;1.40;;
4563;SDS011;2294;51.818;8.484;2023-10-08T05:42:38;3.00;;;1.20;;
4563;SDS011;2294;51.818;8.484;2023-10-08T05:45:11;4.97;;;1.13;;
4563;SDS011;2294;51.818;8.484;2023-10-08T05:47:54;1.73;;;1.03;;
4563;SDS011;2294;51.818;8.484;2023-10-08T05:50:33;3.47;;;0.80;;
4563;SDS011;2294;51.818;8.484;2023-10-08T05:53:08;3.20;;;1.50;;
4563;SDS011;2294;51.818;8.484;2023-10-08T05:55:55;7.33;;;1.30;;
4563;SDS011;2294;51.818;8.484;2023-10-08T05:58:45;4.27;;;1.40;;
4563;SDS011;2294;51.818;8.484;2023-10-08T06:01:25;1.83;;;1.17;;
4563;SDS011;2294;51.818;8.484;2023-10-08T06:04:05;4.23;;;0.97;;
4563;SDS011;2294;51.818;8.484;2023-10-08T06:06:46;8.57;;;1.47;;
4563;SDS011;2294;51.818;8.484;2023-10-08T06:09:22;13.37;;;2.00;;
4563;SDS011;2294;51.818;8.484;2023-10-08T06:12:00;7.37;;;1.23;;
4563;SDS011;2294;51.818;8.484;2023-10-08T06:14:37;6.50;;;1.30;;
4563;SDS011;2294;51.818;8.484;2023-10-08T06:17:32;5.67;;;1.30;;
4563;SDS011;2294;51.818;8.484;2023-10-08T06:20:17;7.83;;;1.20;;
4563;SDS011;2294;51.818;8.484;2023-10-08T06:22:50;5.27;;;1.10;;
4563;SDS011;2294;51.818;8.484;2023-10-08T06:25:18;7.13;;;1.70;;
4563;SDS011;2294;51.818;8.484;2023-10-08T06:27:49;2.10;;;1.10;;
4563;SDS011;2294;51.818;8.484;2023-10-08T06:30:20;4.67;;;1.20;;
4563;SDS011;2294;51.818;8.484;2023-10-08T06:32:48;5.40;;;2.03;;
4563;SDS011;2294;51.818;8.484;2023-10-08T06:35:19;3.30;;;1.30;;
4563;SDS011;2294;51.818;8.484;2023-10-08T06:37:51;5.53;;;1.60;;
4563;SDS011;2294;51.818;8.484;2023-10-08T06:40:21;4.53;;;1.20;;
4563;SDS011;2294;51.818;8.484;2023-10-08T06:43:06;3.97;;;1.30;;
4563;SDS011;2294;51.818;8.484;2023-10-08T06:45:51;6.57;;;1.23;;
4563;SDS011;2294;51.818;8.484;2023-10-08T06:48:23;2.53;;;1.17;;
4563;SDS011;2294;51.818;8.484;2023-10-08T06:50:54;4.23;;;1.00;;
4563;SDS011;2294;51.818;8.484;2023-10-08T06:53:22;4.97;;;1.60;;
4563;SDS011;2294;51.818;8.484;2023-10-08T06:55:49;5.93;;;1.47;;
4563;SDS011;2294;51.818;8.484;2023-10-08T06:58:21;3.83;;;1.07;;
4563;SDS011;2294;51.818;8.484;2023-10-08T07:00:50;9.80;;;1.40;;
4563;SDS011;2294;51.818;8.484;2023-10-08T07:03:20;5.77;;;1.33;;
4563;SDS011;2294;51.818;8.484;2023-10-08T07:05:47;3.73;;;1.27;;
4563;SDS011;2294;51.818;8.484;2023-10-08T07:08:23;5.80;;;2.13;;
4563;SDS011;2294;51.818;8.484;2023-10-08T07:10:50;3.67;;;1.07;;
4563;SDS011;2294;51.818;8.484;2023-10-08T07:13:18;8.90;;;1.20;;
4563;SDS011;2294;51.818;8.484;2023-10-08T07:15:47;3.60;;;1.37;;
4563;SDS011;2294;51.818;8.484;2023-10-08T07:18:16;4.93;;;1.30;;
4563;SDS011;2294;51.818;8.484;2023-10-08T07:20:50;3.00;;;1.10;;
4563;SDS011;2294;51.818;8.484;2023-10-08T07:23:19;5.80;;;1.13;;
4563;SDS011;2294;51.818;8.484;2023-10-08T07:25:53;2.83;;;1.07;;
4563;SDS011;2294;51.818;8.484;2023-10-08T07:28:23;2.77;;;1.40;;
4563;SDS011;2294;51.818;8.484;2023-10-08T07:30:51;8.27;;;1.57;;
4563;SDS011;2294;51.818;8.484;2023-10-08T07:33:21;3.53;;;1.50;;
4563;SDS011;2294;51.818;8.484;2023-10-08T07:35:50;7.47;;;1.40;;
4563;SDS011;2294;51.818;8.484;2023-10-08T07:38:22;3.13;;;1.00;;
4563;SDS011;2294;51.818;8.484;2023-10-08T07:40:52;7.20;;;1.30;;
4563;SDS011;2294;51.818;8.484;2023-10-08T07:43:20;6.30;;;1.67;;
4563;SDS011;2294;51.818;8.484;2023-10-08T07:45:47;13.23;;;1.43;;
4563;SDS011;2294;51.818;8.484;2023-10-08T07:48:14;3.03;;;1.50;;
4563;SDS011;2294;51.818;8.484;2023-10-08T07:50:44;5.97;;;1.60;;
4563;SDS011;2294;51.818;8.484;2023-10-08T07:53:12;5.53;;;1.10;;
4563;SDS011;2294;51.818;8.484;2023-10-08T07:55:46;3.50;;;1.60;;
4563;SDS011;2294;51.818;8.484;2023-10-08T07:58:15;4.37;;;1.10;;
4563;SDS011;2294;51.818;8.484;2023-10-08T08:00:42;6.53;;;1.30;;
4563;SDS011;2294;51.818;8.484;2023-10-08T08:03:19;3.00;;;1.40;;
4563;SDS011;2294;51.818;8.484;2023-10-08T08:05:48;4.73;;;1.03;;
4563;SDS011;2294;51.818;8.484;2023-10-08T08:08:18;5.67;;;1.30;;
4563;SDS011;2294;51.818;8.484;2023-10-08T08:10:46;2.83;;;1.17;;
4563;SDS011;2294;51.818;8.484;2023-10-08T08:13:14;2.43;;;0.97;;
4563;SDS011;2294;51.818;8.484;2023-10-08T08:15:46;3.90;;;1.10;;
4563;SDS011;2294;51.818;8.484;2023-10-08T08:18:16;6.73;;;1.17;;
4563;SDS011;2294;51.818;8.484;2023-10-08T08:20:49;8.77;;;1.20;;
4563;SDS011;2294;51.818;8.484;2023-10-08T08:23:17;3.67;;;1.10;;
4563;SDS011;2294;51.818;8.484;2023-10-08T08:25:47;6.30;;;1.90;;
4563;SDS011;2294;51.818;8.484;2023-10-08T08:28:31;9.83;;;1.50;;
4563;SDS011;2294;51.818;8.484;2023-10-08T08:31:01;5.20;;;1.67;;
4563;SDS011;2294;51.818;8.484;2023-10-08T08:33:29;3.63;;;0.90;;
4563;SDS011;2294;51.818;8.484;2023-10-08T08:36:18;5.40;;;1.50;;
4563;SDS011;2294;51.818;8.484;2023-10-08T08:38:45;3.03;;;0.93;;
4563;SDS011;2294;51.818;8.484;2023-10-08T08:41:13;4.00;;;1.23;;
4563;SDS011;2294;51.818;8.484;2023-10-08T08:43:43;3.03;;;1.00;;
4563;SDS011;2294;51.818;8.484;2023-10-08T08:46:11;6.40;;;1.30;;
4563;SDS011;2294;51.818;8.484;2023-10-08T08:48:39;4.37;;;1.40;;
4563;SDS011;2294;51.818;8.484;2023-10-08T08:51:07;4.93;;;1.30;;
4563;SDS011;2294;51.818;8.484;2023-10-08T08:53:37;4.23;;;1.60;;
4563;SDS011;2294;51.818;8.484;2023-10-08T08:56:05;8.30;;;1.67;;
4563;SDS011;2294;51.818;8.484;2023-10-08T08:58:34;8.00;;;1.57;;
4563;SDS011;2294;51.818;8.484;2023-10-08T09:01:02;4.83;;;1.57;;
4563;SDS011;2294;51.818;8.484;2023-10-08T09:03:30;10.53;;;1.53;;
4563;SDS011;2294;51.818;8.484;2023-10-08T09:05:57;7.40;;;1.27;;
4563;SDS011;2294;51.818;8.484;2023-10-08T09:08:27;4.27;;;1.50;;
4563;SDS011;2294;51.818;8.484;2023-10-08T09:10:58;3.90;;;1.13;;
4563;SDS011;2294;51.818;8.484;2023-10-08T09:13:27;3.87;;;1.83;;
4563;SDS011;2294;51.818;8.484;2023-10-08T09:16:01;5.13;;;1.50;;
4563;SDS011;2294;51.818;8.484;2023-10-08T09:18:29;2.10;;;1.10;;
4563;SDS011;2294;51.818;8.484;2023-10-08T09:21:06;2.83;;;1.07;;
4563;SDS011;2294;51.818;8.484;2023-10-08T09:23:37;2.20;;;1.10;;
4563;SDS011;2294;51.818;8.484;2023-10-08T09:26:09;1.97;;;1.20;;
4563;SDS011;2294;51.818;8.484;2023-10-08T09:28:39;5.30;;;1.40;;
4563;SDS011;2294;51.818;8.484;2023-10-08T09:31:09;5.43;;;1.17;;
4563;SDS011;2294;51.818;8.484;2023-10-08T09:33:37;5.03;;;1.63;;
4563;SDS011;2294;51.818;8.484;2023-10-08T09:36:06;5.40;;;1.07;;
4563;SDS011;2294;51.818;8.484;2023-10-08T09:38:35;4.87;;;1.50;;
4563;SDS011;2294;51.818;8.484;2023-10-08T09:41:03;3.30;;;1.63;;
4563;SDS011;2294;51.818;8.484;2023-10-08T09:43:34;4.83;;;1.90;;
4563;SDS011;2294;51.818;8.484;2023-10-08T09:46:07;6.83;;;1.40;;
4563;SDS011;2294;51.818;8.484;2023-10-08T09:48:36;5.03;;;1.60;;
4563;SDS011;2294;51.818;8.484;2023-10-08T09:51:04;4.00;;;1.13;;
4563;SDS011;2294;51.818;8.484;2023-10-08T09:53:36;5.53;;;1.83;;
4563;SDS011;2294;51.818;8.484;2023-10-08T09:56:11;6.77;;;1.30;;
4563;SDS011;2294;51.818;8.484;2023-10-08T09:58:41;6.33;;;1.20;;
4563;SDS011;2294;51.818;8.484;2023-10-08T10:01:10;2.50;;;1.13;;
4563;SDS011;2294;51.818;8.484;2023-10-08T10:03:37;9.73;;;1.33;;
4563;SDS011;2294;51.818;8.484;2023-10-08T10:06:11;5.60;;;1.20;;
4563;SDS011;2294;51.818;8.484;2023-10-08T10:08:40;6.30;;;1.30;;
4563;SDS011;2294;51.818;8.484;2023-10-08T10:11:07;5.60;;;1.10;;
4563;SDS011;2294;51.818;8.484;2023-10-08T10:13:38;3.83;;;1.43;;
4563;SDS011;2294;51.818;8.484;2023-10-08T10:16:07;2.87;;;1.20;;
4563;SDS011;2294;51.818;8.484;2023-10-08T10:18:34;3.77;;;1.17;;
4563;SDS011;2294;51.818;8.484;2023-10-08T10:23:44;3.53;;;1.70;;
4563;SDS011;2294;51.818;8.484;2023-10-08T10:26:21;2.60;;;1.10;;
4563;SDS011;2294;51.818;8.484;2023-10-08T10:31:37;3.13;;;1.57;;
4563;SDS011;2294;51.818;8.484;2023-10-08T10:34:05;6.73;;;1.43;;
4563;SDS011;2294;51.818;8.484;2023-10-08T10:36:33;3.83;;;1.30;;
4563;SDS011;2294;51.818;8.484;2023-10-08T10:39:01;3.50;;;1.70;;
4563;SDS011;2294;51.818;8.484;2023-10-08T10:41:42;5.10;;;1.60;;
4563;SDS011;2294;51.818;8.484;2023-10-08T10:44:10;9.73;;;1.60;;
4563;SDS011;2294;51.818;8.484;2023-10-08T10:46:40;12.93;;;1.40;;
4563;SDS011;2294;51.818;8.484;2023-10-08T10:49:08;3.60;;;1.60;;
4563;SDS011;2294;51.818;8.484;2023-10-08T10:51:43;6.10;;;2.03;;
4563;SDS011;2294;51.818;8.484;2023-10-08T10:54:11;4.43;;;1.60;;
4563;SDS011;2294;51.818;8.484;2023-10-08T10:56:45;2.53;;;1.03;;
4563;SDS011;2294;51.818;8.484;2023-10-08T10:59:12;5.90;;;1.00;;
4563;SDS011;2294;51.818;8.484;2023-10-08T11:01:45;4.73;;;1.30;;
4563;SDS011;2294;51.818;8.484;2023-10-08T11:04:17;6.00;;;1.43;;
4563;SDS011;2294;51.818;8.484;2023-10-08T11:06:46;6.57;;;1.40;;
4563;SDS011;2294;51.818;8.484;2023-10-08T11:09:15;3.20;;;1.43;;
4563;SDS011;2294;51.818;8.484;2023-10-08T11:12:01;6.77;;;1.33;;
4563;SDS011;2294;51.818;8.484;2023-10-08T11:14:35;3.97;;;1.10;;
4563;SDS011;2294;51.818;8.484;2023-10-08T11:17:10;4.17;;;1.17;;
4563;SDS011;2294;51.818;8.484;2023-10-08T11:19:37;3.50;;;1.07;;
4563;SDS011;2294;51.818;8.484;2023-10-08T11:22:07;6.13;;;1.40;;
4563;SDS011;2294;51.818;8.484;2023-10-08T11:24:41;10.13;;;1.70;;
4563;SDS011;2294;51.818;8.484;2023-10-08T11:27:12;7.40;;;1.50;;
4563;SDS011;2294;51.818;8.484;2023-10-08T11:29:43;5.00;;;1.40;;
4563;SDS011;2294;51.818;8.484;2023-10-08T11:32:13;2.50;;;1.60;;
4563;SDS011;2294;51.818;8.484;2023-10-08T11:34:42;6.13;;;1.70;;
4563;SDS011;2294;51.818;8.484;2023-10-08T11:37:10;4.93;;;1.70;;
4563;SDS011;2294;51.818;8.484;2023-10-08T11:39:46;7.53;;;1.30;;
4563;SDS011;2294;51.818;8.484;2023-10-08T11:42:13;5.70;;;1.10;;
4563;SDS011;2294;51.818;8.484;2023-10-08T11:45:05;3.57;;;1.10;;
4563;SDS011;2294;51.818;8.484;2023-10-08T11:47:45;5.10;;;1.10;;
4563;SDS011;2294;51.818;8.484;2023-10-08T11:50:14;10.60;;;1.27;;
4563;SDS011;2294;51.818;8.484;2023-10-08T11:52:44;3.20;;;1.10;;
4563;SDS011;2294;51.818;8.484;2023-10-08T11:55:12;7.10;;;1.63;;
4563;SDS011;2294;51.818;8.484;2023-10-08T11:57:44;1.57;;;0.90;;
4563;SDS011;2294;51.818;8.484;2023-10-08T12:00:14;15.97;;;2.07;;
4563;SDS011;2294;51.818;8.484;2023-10-08T12:02:46;4.00;;;1.07;;
4563;SDS011;2294;51.818;8.484;2023-10-08T12:05:14;4.80;;;1.10;;
4563;SDS011;2294;51.818;8.484;2023-10-08T12:07:45;6.00;;;1.23;;
4563;SDS011;2294;51.818;8.484;2023-10-08T12:10:12;2.90;;;1.20;;
4563;SDS011;2294;51.818;8.484;2023-10-08T12:12:42;5.80;;;1.20;;
4563;SDS011;2294;51.818;8.484;2023-10-08T12:15:11;2.50;;;1.10;;
4563;SDS011;2294;51.818;8.484;2023-10-08T12:17:44;7.90;;;1.50;;
4563;SDS011;2294;51.818;8.484;2023-10-08T12:20:22;6.60;;;1.20;;
4563;SDS011;2294;51.818;8.484;2023-10-08T12:22:50;3.13;;;1.10;;
4563;SDS011;2294;51.818;8.484;2023-10-08T12:25:18;3.83;;;1.33;;
4563;SDS011;2294;51.818;8.484;2023-10-08T12:27:45;2.37;;;1.30;;
4563;SDS011;2294;51.818;8.484;2023-10-08T12:30:14;7.13;;;1.77;;
4563;SDS011;2294;51.818;8.484;2023-10-08T12:32:41;4.03;;;2.27;;
4563;SDS011;2294;51.818;8.484;2023-10-08T12:35:11;5.60;;;1.40;;
4563;SDS011;2294;51.818;8.484;2023-10-08T12:37:40;6.30;;;1.37;;
4563;SDS011;2294;51.818;8.484;2023-10-08T12:40:09;2.23;;;1.37;;
4563;SDS011;2294;51.818;8.484;2023-10-08T12:42:47;2.50;;;1.33;;
4563;SDS011;2294;51.818;8.484;2023-10-08T12:45:15;9.77;;;1.63;;
4563;SDS011;2294;51.818;8.484;2023-10-08T12:47:46;4.67;;;1.27;;
4563;SDS011;2294;51.818;8.484;2023-10-08T12:50:14;6.20;;;1.77;;
4563;SDS011;2294;51.818;8.484;2023-10-08T12:52:43;3.90;;;1.20;;
4563;SDS011;2294;51.818;8.484;2023-10-08T12:55:18;12.77;;;2.03;;
4563;SDS011;2294;51.818;8.484;2023-10-08T12:57:49;2.67;;;1.20;;
4563;SDS011;2294;51.818;8.484;2023-10-08T13:00:20;2.77;;;1.20;;
4563;SDS011;2294;51.818;8.484;2023-10-08T13:02:48;5.70;;;1.50;;
4563;SDS011;2294;51.818;8.484;2023-10-08T13:05:18;7.60;;;1.40;;
4563;SDS011;2294;51.818;8.484;2023-10-08T13:07:53;9.80;;;1.73;;
4563;SDS011;2294;51.818;8.484;2023-10-08T13:10:21;5.00;;;1.50;;
4563;SDS011;2294;51.818;8.484;2023-10-08T13:12:49;2.93;;;1.20;;
4563;SDS011;2294;51.818;8.484;2023-10-08T13:15:16;2.60;;;1.00;;
4563;SDS011;2294;51.818;8.484;2023-10-08T13:17:43;5.60;;;1.63;;
4563;SDS011;2294;51.818;8.484;2023-10-08T13:20:11;4.10;;;1.30;;
4563;SDS011;2294;51.818;8.484;2023-10-08T13:22:39;2.70;;;1.10;;
4563;SDS011;2294;51.818;8.484;2023-10-08T13:25:10;3.30;;;1.07;;
4563;SDS011;2294;51.818;8.484;2023-10-08T13:27:37;5.23;;;1.57;;
4563;SDS011;2294;51.818;8.484;2023-10-08T13:30:06;1.80;;;1.10;;
4563;SDS011;2294;51.818;8.484;2023-10-08T13:32:34;4.20;;;1.50;;
4563;SDS011;2294;51.818;8.484;2023-10-08T13:35:03;3.50;;;1.50;;
4563;SDS011;2294;51.818;8.484;2023-10-08T13:37:32;5.93;;;1.27;;
4563;SDS011;2294;51.818;8.484;2023-10-08T13:40:00;6.57;;;1.93;;
4563;SDS011;2294;51.818;8.484;2023-10-08T13:42:28;2.00;;;1.00;;
4563;SDS011;2294;51.818;8.484;2023-10-08T13:44:56;2.80;;;1.10;;
4563;SDS011;2294;51.818;8.484;2023-10-08T13:47:24;5.97;;;1.47;;
4563;SDS011;2294;51.818;8.484;2023-10-08T13:49:53;3.17;;;1.20;;
4563;SDS011;2294;51.818;8.484;2023-10-08T13:52:22;6.57;;;2.10;;
4563;SDS011;2294;51.818;8.484;2023-10-08T13:54:51;3.10;;;1.23;;
4563;SDS011;2294;51.818;8.484;2023-10-08T13:57:18;4.30;;;1.00;;
4563;SDS011;2294;51.818;8.484;2023-10-08T13:59:47;4.17;;;1.13;;
4563;SDS011;2294;51.818;8.484;2023-10-08T14:02:15;3.77;;;1.47;;
4563;SDS011;2294;51.818;8.484;2023-10-08T14:04:46;3.47;;;1.10;;
4563;SDS011;2294;51.818;8.484;2023-10-08T14:07:15;8.93;;;1.07;;
4563;SDS011;2294;51.818;8.484;2023-10-08T14:09:43;4.60;;;1.23;;
4563;SDS011;2294;51.818;8.484;2023-10-08T14:12:11;2.07;;;1.20;;
4563;SDS011;2294;51.818;8.484;2023-10-08T14:14:39;2.47;;;1.20;;
4563;SDS011;2294;51.818;8.484;2023-10-08T14:17:10;3.33;;;1.20;;
4563;SDS011;2294;51.818;8.484;2023-10-08T14:19:40;10.07;;;1.03;;
4563;SDS011;2294;51.818;8.484;2023-10-08T14:22:11;3.10;;;1.03;;
4563;SDS011;2294;51.818;8.484;2023-10-08T14:24:40;3.00;;;1.30;;
4563;SDS011;2294;51.818;8.484;2023-10-08T14:27:09;6.67;;;1.20;;
4563;SDS011;2294;51.818;8.484;2023-10-08T14:29:37;4.50;;;1.07;;
4563;SDS011;2294;51.818;8.484;2023-10-08T14:32:06;3.90;;;1.00;;
4563;SDS011;2294;51.818;8.484;2023-10-08T14:34:36;7.17;;;1.30;;
4563;SDS011;2294;51.818;8.484;2023-10-08T14:37:21;6.57;;;1.40;;
4563;SDS011;2294;51.818;8.484;2023-10-08T14:40:06;3.07;;;1.23;;
4563;SDS011;2294;51.818;8.484;2023-10-08T14:42:52;2.80;;;1.10;;
4563;SDS011;2294;51.818;8.484;2023-10-08T14:45:21;2.27;;;1.20;;
4563;SDS011;2294;51.818;8.484;2023-10-08T14:47:51;7.30;;;1.43;;
4563;SDS011;2294;51.818;8.484;2023-10-08T14:50:21;3.53;;;1.00;;
4563;SDS011;2294;51.818;8.484;2023-10-08T14:52:48;4.60;;;1.13;;
4563;SDS011;2294;51.818;8.484;2023-10-08T14:55:15;4.60;;;1.03;;
4563;SDS011;2294;51.818;8.484;2023-10-08T14:57:45;3.30;;;1.10;;
4563;SDS011;2294;51.818;8.484;2023-10-08T15:00:12;2.23;;;1.20;;
4563;SDS011;2294;51.818;8.484;2023-10-08T15:02:39;2.60;;;1.30;;
4563;SDS011;2294;51.818;8.484;2023-10-08T15:05:08;3.63;;;1.13;;
4563;SDS011;2294;51.818;8.484;2023-10-08T15:07:37;2.90;;;1.30;;
4563;SDS011;2294;51.818;8.484;2023-10-08T15:10:05;5.87;;;1.73;;
4563;SDS011;2294;51.818;8.484;2023-10-08T15:12:34;3.77;;;1.23;;
4563;SDS011;2294;51.818;8.484;2023-10-08T15:15:01;5.33;;;1.03;;
4563;SDS011;2294;51.818;8.484;2023-10-08T15:17:37;3.10;;;1.17;;
4563;SDS011;2294;51.818;8.484;2023-10-08T15:20:05;6.47;;;1.47;;
4563;SDS011;2294;51.818;8.484;2023-10-08T15:22:33;6.30;;;1.53;;
4563;SDS011;2294;51.818;8.484;2023-10-08T15:25:02;3.30;;;1.30;;
4563;SDS011;2294;51.818;8.484;2023-10-08T15:27:29;3.20;;;1.33;;
4563;SDS011;2294;51.818;8.484;2023-10-08T15:29:58;3.20;;;1.17;;
4563;SDS011;2294;51.818;8.484;2023-10-08T15:32:26;2.67;;;0.93;;
4563;SDS011;2294;51.818;8.484;2023-10-08T15:34:53;3.93;;;1.50;;
4563;SDS011;2294;51.818;8.484;2023-10-08T15:37:20;3.60;;;1.30;;
4563;SDS011;2294;51.818;8.484;2023-10-08T15:39:47;5.67;;;1.30;;
4563;SDS011;2294;51.818;8.484;2023-10-08T15:42:16;2.10;;;1.33;;